Time;durP1;ratioP1;P1;durP2;ratioP2;P2;SDS_P1;SDS_P2;PMS_P1;PMS_P2;Temp;Humidity;BMP_temperature;BMP_pressure;BME280_temperature;BME280_humidity;BME280_pressure;Samples;Min_cycle;Max_cycle;Signal;HPM_P1;HPM_P2
2023/08/03 00:00:20;;;;;;;1999.90;999.90;;;17.10;99.90;;;;;;5034588;28;20109;-69
2023/08/03 00:02:46;;;;;;;1999.90;999.90;;;17.10;99.90;;;;;;5034809;28;20109;-69
2023/08/03 00:05:13;;;;;;;1999.90;999.90;;;17.20;99.90;;;;;;5016627;28;20022;-70
2023/08/03 00:07:38;;;;;;;1999.90;999.90;;;17.20;99.90;;;;;;5034545;28;20021;-69
2023/08/03 00:10:04;;;;;;;1999.90;999.90;;;17.30;99.90;;;;;;5034673;28;20029;-70
2023/08/03 00:12:30;;;;;;;1999.90;999.90;;;17.30;99.90;;;;;;5034542;28;20072;-70
2023/08/03 00:14:56;;;;;;;1999.90;999.90;;;17.40;99.90;;;;;;5034529;28;20025;-69
2023/08/03 00:17:21;;;;;;;1999.90;999.90;;;17.40;99.90;;;;;;5016723;28;20030;-70
2023/08/03 00:19:47;;;;;;;1999.90;999.90;;;17.50;99.90;;;;;;5034461;28;20033;-69
2023/08/03 00:22:12;;;;;;;1999.90;999.90;;;17.50;99.90;;;;;;5033715;28;20075;-68
2023/08/03 00:24:38;;;;;;;1999.90;999.90;;;17.60;99.90;;;;;;5034302;28;20022;-79
2023/08/03 00:27:04;;;;;;;1999.90;999.90;;;17.60;99.90;;;;;;5034358;28;20499;-70
2023/08/03 00:29:30;;;;;;;1999.90;999.90;;;17.60;99.90;;;;;;5034406;28;20075;-69
2023/08/03 00:31:55;;;;;;;1999.90;999.90;;;17.60;99.90;;;;;;5016510;28;20120;-69
2023/08/03 00:34:21;;;;;;;1999.90;999.90;;;17.60;99.90;;;;;;5033790;28;20032;-69
2023/08/03 00:36:46;;;;;;;1999.90;999.90;;;17.60;99.90;;;;;;5033925;28;20026;-69
2023/08/03 00:39:12;;;;;;;1999.90;999.90;;;17.60;99.90;;;;;;5033980;28;20061;-69
2023/08/03 00:41:38;;;;;;;1999.90;999.90;;;17.60;99.90;;;;;;5033487;28;20025;-68
2023/08/03 00:44:03;;;;;;;1999.90;999.90;;;17.40;99.90;;;;;;5033972;28;20524;-68
2023/08/03 00:46:29;;;;;;;1999.90;999.90;;;17.00;99.90;;;;;;5033829;28;20021;-69
2023/08/03 00:48:55;;;;;;;1999.90;999.90;;;17.00;99.90;;;;;;5033331;28;20045;-68
2023/08/03 00:51:20;;;;;;;1999.90;999.90;;;16.90;99.90;;;;;;5032934;28;20490;-68
2023/08/03 00:53:46;;;;;;;1999.90;999.90;;;17.00;99.90;;;;;;5033679;28;20029;-68
2023/08/03 00:56:12;;;;;;;1999.90;999.90;;;16.80;99.90;;;;;;5015945;28;20443;-69
2023/08/03 00:58:41;;;;;;;1999.90;999.90;;;16.70;99.90;;;;;;5033294;28;20037;-69
2023/08/03 01:01:07;;;;;;;1999.90;999.90;;;16.70;99.90;;;;;;5033387;28;20480;-76
2023/08/03 01:03:33;;;;;;;1999.90;999.90;;;16.70;99.90;;;;;;5033321;28;20067;-69
2023/08/03 01:05:58;;;;;;;1999.90;999.90;;;16.80;99.90;;;;;;5033527;28;20096;-69
2023/08/03 01:08:24;;;;;;;1999.90;999.90;;;16.80;99.90;;;;;;5033485;28;20484;-69
2023/08/03 01:10:50;;;;;;;1999.90;999.90;;;16.80;99.90;;;;;;5015678;28;20029;-69
2023/08/03 01:13:16;;;;;;;1999.90;999.90;;;16.80;99.90;;;;;;5015348;28;20035;-68
2023/08/03 01:15:42;;;;;;;1999.90;999.90;;;16.90;99.90;;;;;;5033255;28;20492;-69
2023/08/03 01:18:07;;;;;;;1999.90;999.90;;;16.90;99.90;;;;;;5033462;28;20029;-69
2023/08/03 01:20:36;;;;;;;1999.90;999.90;;;16.90;99.90;;;;;;5033479;28;20025;-68
2023/08/03 01:23:06;;;;;;;1999.90;999.90;;;16.90;99.90;;;;;;5033214;28;20052;-69
2023/08/03 01:25:35;;;;;;;1999.90;999.90;;;16.90;99.90;;;;;;5033243;28;20017;-68
2023/08/03 01:28:03;;;;;;;1999.90;999.90;;;17.00;99.90;;;;;;5033082;28;20476;-70
2023/08/03 01:30:30;;;;;;;1999.90;999.90;;;17.10;99.90;;;;;;5033569;28;20439;-77
2023/08/03 01:32:55;;;;;;;1999.90;999.90;;;17.30;99.90;;;;;;5033252;28;20496;-69
2023/08/03 01:35:21;;;;;;;1999.90;999.90;;;17.30;99.90;;;;;;5032832;28;20100;-69
2023/08/03 01:37:47;;;;;;;1999.90;999.90;;;17.40;99.90;;;;;;5014927;28;20091;-69
2023/08/03 01:40:13;;;;;;;1999.90;999.90;;;17.50;99.90;;;;;;5033133;28;20476;-69
2023/08/03 01:42:40;;;;;;;1999.90;999.90;;;17.50;99.90;;;;;;5032706;28;20076;-70
2023/08/03 01:45:06;;;;;;;1999.90;999.90;;;17.50;99.90;;;;;;5033142;28;20013;-69
2023/08/03 01:47:33;;;;;;;1999.90;999.90;;;17.60;99.90;;;;;;5032789;28;20046;-69
2023/08/03 01:49:59;;;;;;;1999.90;999.90;;;17.60;99.90;;;;;;5032907;28;20041;-69
2023/08/03 01:52:24;;;;;;;1999.90;999.90;;;17.30;99.90;;;;;;5031955;28;20041;-68
2023/08/03 01:54:50;;;;;;;1999.90;999.90;;;17.10;99.90;;;;;;5032750;28;20057;-69
2023/08/03 01:57:17;;;;;;;1999.90;999.90;;;17.10;99.90;;;;;;5032623;28;20109;-69
2023/08/03 01:59:43;;;;;;;1999.90;999.90;;;17.10;99.90;;;;;;5032657;28;20022;-69
2023/08/03 02:02:09;;;;;;;1999.90;999.90;;;17.20;99.90;;;;;;5032839;28;20026;-69
2023/08/03 02:04:35;;;;;;;1999.90;999.90;;;17.20;99.90;;;;;;5014902;28;20030;-69
2023/08/03 02:07:07;;;;;;;1999.90;999.90;;;17.20;99.90;;;;;;5015027;28;20112;-77
2023/08/03 02:09:33;;;;;;;;;;;17.20;99.90;;;;;;5032806;28;20021;-76
2023/08/03 02:11:59;;;;;;;1999.90;999.90;;;17.10;99.90;;;;;;5032839;28;19916;-68
2023/08/03 02:14:24;;;;;;;1999.90;999.90;;;17.00;99.90;;;;;;5032733;28;20029;-68
2023/08/03 02:16:50;;;;;;;1999.90;999.90;;;16.90;99.90;;;;;;5014859;28;20025;-68
2023/08/03 02:19:15;;;;;;;1999.90;999.90;;;16.90;99.90;;;;;;5032510;28;20029;-69
2023/08/03 02:21:41;;;;;;;1999.90;999.90;;;16.80;99.90;;;;;;5032680;28;20605;-78
2023/08/03 02:24:06;;;;;;;1999.90;999.90;;;16.70;99.90;;;;;;5032411;28;20104;-70
2023/08/03 02:26:32;;;;;;;1999.90;999.90;;;16.80;99.90;;;;;;5032687;28;20032;-68
2023/08/03 02:28:57;;;;;;;1999.90;999.90;;;16.90;99.90;;;;;;5032435;28;20021;-69
2023/08/03 02:31:23;;;;;;;1999.90;999.90;;;17.00;99.90;;;;;;5032572;28;20029;-69
2023/08/03 02:33:49;;;;;;;1999.90;999.90;;;17.00;99.90;;;;;;5032472;28;20037;-70
2023/08/03 02:36:14;;;;;;;1999.90;999.90;;;17.00;99.90;;;;;;5014575;28;20033;-69
2023/08/03 02:38:40;;;;;;;1999.90;999.90;;;17.00;99.90;;;;;;5032441;28;20083;-69
2023/08/03 02:41:05;;;;;;;1999.90;999.90;;;17.10;99.90;;;;;;5014463;28;20095;-69
2023/08/03 02:43:31;;;;;;;1999.90;999.90;;;17.20;99.90;;;;;;5032277;28;20046;-70
2023/08/03 02:45:57;;;;;;;1999.90;999.90;;;17.20;99.90;;;;;;5014487;28;20025;-78
2023/08/03 02:48:22;;;;;;;1999.90;999.90;;;17.20;99.90;;;;;;5032335;28;20025;-70
2023/08/03 02:50:48;;;;;;;1999.90;999.90;;;17.20;99.90;;;;;;5014111;28;20432;-69
2023/08/03 02:53:13;;;;;;;1999.90;999.90;;;17.20;99.90;;;;;;5031544;28;20033;-69
2023/08/03 02:55:39;;;;;;;1999.90;999.90;;;17.20;99.90;;;;;;5032297;28;20033;-70
2023/08/03 02:58:05;;;;;;;1999.90;999.90;;;17.20;99.90;;;;;;5033448;28;20108;-78
2023/08/03 03:00:30;;;;;;;1999.90;999.90;;;17.30;99.90;;;;;;5015353;28;20484;-69
2023/08/03 03:02:56;;;;;;;1999.90;999.90;;;17.30;99.90;;;;;;5032291;28;20033;-69
2023/08/03 03:05:21;;;;;;;1999.90;999.90;;;17.30;99.90;;;;;;5034889;28;20014;-70
2023/08/03 03:07:47;;;;;;;1999.90;999.90;;;17.30;99.90;;;;;;5036137;28;20029;-69
2023/08/03 03:10:13;;;;;;;1999.90;999.90;;;17.30;99.90;;;;;;5035574;28;20032;-69
2023/08/03 03:12:39;;;;;;;1999.90;999.90;;;17.30;99.90;;;;;;5035719;28;20032;-69
2023/08/03 03:15:05;;;;;;;1999.90;999.90;;;17.30;99.90;;;;;;5017884;28;20466;-70
2023/08/03 03:17:31;;;;;;;1999.90;999.90;;;17.30;99.90;;;;;;5035549;28;20376;-69
2023/08/03 03:19:56;;;;;;;1999.90;999.90;;;17.30;99.90;;;;;;5035044;28;20072;-70
2023/08/03 03:22:22;;;;;;;1999.90;999.90;;;17.30;99.90;;;;;;5034440;28;20021;-69
2023/08/03 03:24:48;;;;;;;1999.90;999.90;;;17.20;99.90;;;;;;5017766;28;20387;-69
2023/08/03 03:27:13;;;;;;;1999.90;999.90;;;17.20;99.90;;;;;;5035459;28;20025;-70
2023/08/03 03:29:39;;;;;;;1999.90;999.90;;;17.20;99.90;;;;;;5035313;28;20104;-69
2023/08/03 03:32:04;;;;;;;1999.90;999.90;;;17.20;99.90;;;;;;5035467;28;20091;-69
2023/08/03 03:34:30;;;;;;;1999.90;999.90;;;17.20;99.90;;;;;;5034988;28;20017;-69
2023/08/03 03:36:56;;;;;;;1999.90;999.90;;;17.20;99.90;;;;;;5035640;28;20033;-69
2023/08/03 03:39:21;;;;;;;1999.90;999.90;;;17.30;99.90;;;;;;5035512;28;20097;-77
2023/08/03 03:41:47;;;;;;;1999.90;999.90;;;17.30;99.90;;;;;;5035433;28;20030;-69
2023/08/03 03:44:12;;;;;;;1999.90;999.90;;;17.30;99.90;;;;;;5017205;28;20503;-70
2023/08/03 03:46:38;;;;;;;1999.90;999.90;;;17.30;99.90;;;;;;5035234;28;20067;-69
2023/08/03 03:49:03;;;;;;;1999.90;999.90;;;17.30;99.90;;;;;;5017228;28;20029;-69
2023/08/03 03:51:29;;;;;;;1999.90;999.90;;;17.30;99.90;;;;;;5034018;28;20033;-70
2023/08/03 03:53:55;;;;;;;1999.90;999.90;;;17.20;99.90;;;;;;5034751;28;20022;-78
2023/08/03 03:56:20;;;;;;;1999.90;999.90;;;17.20;99.90;;;;;;5035071;28;20450;-70
2023/08/03 03:58:46;;;;;;;1999.90;999.90;;;17.20;99.90;;;;;;5034989;28;20511;-69
2023/08/03 04:01:11;;;;;;;1999.90;999.90;;;17.20;99.90;;;;;;5034672;28;20060;-69
2023/08/03 04:03:37;;;;;;;1999.90;999.90;;;17.20;99.90;;;;;;5034582;28;20025;-69
2023/08/03 04:06:02;;;;;;;1999.90;999.90;;;17.20;99.90;;;;;;5034798;28;20392;-70
2023/08/03 04:08:28;;;;;;;1999.90;999.90;;;17.20;99.90;;;;;;5016820;28;20025;-67
2023/08/03 04:10:53;;;;;;;1999.90;999.90;;;17.00;99.90;;;;;;5034606;28;20061;-69
2023/08/03 04:13:19;;;;;;;1999.90;999.90;;;16.60;99.90;;;;;;5016727;28;20095;-67
2023/08/03 04:15:45;;;;;;;1999.90;999.90;;;16.40;99.90;;;;;;5033440;28;20034;-68
2023/08/03 04:18:10;;;;;;;1999.90;999.90;;;16.40;99.90;;;;;;5016280;28;20060;-68
2023/08/03 04:20:36;;;;;;;1999.90;999.90;;;16.30;99.90;;;;;;5034180;28;20036;-68
2023/08/03 04:23:01;;;;;;;1999.90;999.90;;;16.40;99.90;;;;;;5033775;28;20404;-68
2023/08/03 04:25:27;;;;;;;1999.90;999.90;;;16.40;99.90;;;;;;5033556;28;20025;-68
2023/08/03 04:27:53;;;;;;;1999.90;999.90;;;16.40;99.90;;;;;;5034397;28;20032;-68
2023/08/03 04:30:18;;;;;;;1999.90;999.90;;;16.50;99.90;;;;;;5034233;28;20035;-68
2023/08/03 04:32:44;;;;;;;1999.90;999.90;;;16.60;99.90;;;;;;5034244;28;20484;-76
2023/08/03 04:35:10;;;;;;;1999.90;999.90;;;16.60;99.90;;;;;;5033911;28;20033;-68
2023/08/03 04:37:35;;;;;;;1999.90;999.90;;;16.60;99.90;;;;;;5034233;28;20120;-68
2023/08/03 04:40:02;;;;;;;1999.90;999.90;;;16.60;99.90;;;;;;5033989;28;20503;-68
2023/08/03 04:42:27;;;;;;;1999.90;999.90;;;16.60;99.90;;;;;;5033921;28;20067;-77
2023/08/03 04:44:53;;;;;;;1999.90;999.90;;;16.60;99.90;;;;;;5033787;28;20439;-77
2023/08/03 04:47:18;;;;;;;1999.90;999.90;;;16.60;99.90;;;;;;5033882;28;20057;-68
2023/08/03 04:49:44;;;;;;;1999.90;999.90;;;16.60;99.90;;;;;;5034066;28;20084;-69
2023/08/03 04:52:09;;;;;;;1999.90;999.90;;;16.60;99.90;;;;;;5033098;28;20040;-69
2023/08/03 04:54:35;;;;;;;1999.90;999.90;;;16.60;99.90;;;;;;5025193;28;20029;-69
2023/08/03 04:57:01;;;;;;;1999.90;999.90;;;16.60;99.90;;;;;;5033641;28;20025;-75
2023/08/03 04:59:26;;;;;;;1999.90;999.90;;;16.60;99.90;;;;;;5033743;28;20099;-69
2023/08/03 05:01:52;;;;;;;1999.90;999.90;;;16.70;99.90;;;;;;5033634;28;20028;-68
2023/08/03 05:04:17;;;;;;;1999.90;999.90;;;16.60;99.90;;;;;;5033908;28;20080;-68
2023/08/03 05:06:43;;;;;;;1999.90;999.90;;;16.70;99.90;;;;;;5033753;28;20033;-68
2023/08/03 05:09:09;;;;;;;1999.90;999.90;;;16.70;99.90;;;;;;5033565;28;20036;-69
2023/08/03 05:11:34;;;;;;;1999.90;999.90;;;16.70;99.90;;;;;;5033225;28;20090;-77
2023/08/03 05:14:00;;;;;;;1999.90;999.90;;;16.70;99.90;;;;;;5033534;28;20030;-68
2023/08/03 05:16:27;;;;;;;1999.90;999.90;;;16.70;99.90;;;;;;5015597;28;20115;-69
2023/08/03 05:18:53;;;;;;;1999.90;999.90;;;16.70;99.90;;;;;;5033738;28;20021;-68
2023/08/03 05:21:19;;;;;;;1999.90;999.90;;;16.70;99.90;;;;;;5015303;28;20381;-69
2023/08/03 05:23:48;;;;;;;1999.90;999.90;;;16.80;99.90;;;;;;5033247;28;20033;-68
2023/08/03 05:26:13;;;;;;;1999.90;999.90;;;16.80;99.90;;;;;;5035509;28;20067;-68
2023/08/03 05:28:39;;;;;;;1999.90;999.90;;;16.80;99.90;;;;;;5053062;28;20029;-69
2023/08/03 05:31:05;;;;;;;1999.90;999.90;;;16.80;99.90;;;;;;5053143;28;20021;-68
2023/08/03 05:33:34;;;;;;;1999.90;999.90;;;16.90;99.90;;;;;;5053127;28;20028;-68
2023/08/03 05:36:00;;;;;;;1999.90;999.90;;;16.90;99.90;;;;;;5018074;28;20113;-69
2023/08/03 05:38:25;;;;;;;1999.90;999.90;;;17.00;99.90;;;;;;5044619;28;20029;-69
2023/08/03 05:40:51;;;;;;;1999.90;999.90;;;17.00;99.90;;;;;;5050671;28;20033;-68
2023/08/03 05:43:17;;;;;;;1999.90;999.90;;;17.00;99.90;;;;;;5032499;28;20054;-69
2023/08/03 05:45:49;;;;;;;1999.90;999.90;;;17.00;99.90;;;;;;5030570;28;20020;-69
2023/08/03 05:48:19;;;;;;;1999.90;999.90;;;17.10;99.90;;;;;;5032052;28;20021;-77
2023/08/03 05:50:50;;;;;;;1999.90;999.90;;;17.20;99.90;;;;;;5039355;28;20087;-69
2023/08/03 05:53:16;;;;;;;1999.90;999.90;;;17.20;99.90;;;;;;5033710;28;20409;-69
2023/08/03 05:55:43;;;;;;;1999.90;999.90;;;17.20;99.90;;;;;;5031979;28;20486;-69
2023/08/03 05:58:11;;;;;;;1999.90;999.90;;;17.20;99.90;;;;;;5031616;28;20041;-69
2023/08/03 06:00:37;;;;;;;1999.90;999.90;;;17.20;99.90;;;;;;5052436;28;20029;-78
2023/08/03 06:03:03;;;;;;;1999.90;999.90;;;17.30;99.90;;;;;;5033254;28;20036;-78
2023/08/03 06:05:57;;;;;;;1999.90;999.90;;;17.50;99.90;;;;;;5014038;28;20241;-70
2023/08/03 06:08:25;;;;;;;1999.90;999.90;;;17.50;99.90;;;;;;5009910;28;20408;-69
2023/08/03 06:11:03;;;;;;;1999.90;999.90;;;17.50;99.90;;;;;;5023826;28;20021;-69
2023/08/03 06:13:33;;;;;;;1999.90;999.90;;;17.70;99.90;;;;;;4993706;28;20033;-77
2023/08/03 06:16:21;;;;;;;1999.90;999.90;;;17.90;99.90;;;;;;5013054;28;20396;-69
2023/08/03 06:18:54;;;;;;;1999.90;999.90;;;18.00;99.90;;;;;;5014589;28;20083;-69
2023/08/03 06:21:22;;;;;;;1999.90;999.90;;;18.10;99.90;;;;;;5013553;28;20033;-69
2023/08/03 06:23:49;;;;;;;1999.90;999.90;;;18.10;99.90;;;;;;5032012;28;20133;-70
2023/08/03 06:26:17;;;;;;;1999.90;999.90;;;18.00;99.90;;;;;;5028860;28;20025;-70
2023/08/03 06:28:47;;;;;;;1999.90;999.90;;;17.90;99.90;;;;;;5033195;28;20032;-68
2023/08/03 06:31:17;;;;;;;1999.90;999.90;;;18.00;99.90;;;;;;5048560;28;20029;-69
2023/08/03 06:33:44;;;;;;;1999.90;999.90;;;18.00;99.90;;;;;;5026270;28;20037;-68
2023/08/03 06:36:19;;;;;;;1999.90;999.90;;;18.10;99.90;;;;;;5027456;28;20511;-69
2023/08/03 06:38:46;;;;;;;1999.90;999.90;;;18.40;99.90;;;;;;5023635;28;20034;-70
2023/08/03 06:41:12;;;;;;;1999.90;999.90;;;18.70;99.90;;;;;;5030612;28;20524;-69
2023/08/03 06:43:37;;;;;;;1999.90;999.90;;;18.70;99.90;;;;;;5015883;28;20128;-69
2023/08/03 06:46:04;;;;;;;1999.90;999.90;;;18.40;99.90;;;;;;5034557;28;20042;-69
2023/08/03 06:48:30;;;;;;;1999.90;999.90;;;17.90;99.90;;;;;;5034570;28;20500;-68
2023/08/03 06:50:55;;;;;;;1999.90;999.90;;;17.30;99.90;;;;;;5033379;28;20134;-68
2023/08/03 06:53:22;;;;;;;1999.90;999.90;;;17.20;99.90;;;;;;5030449;28;20651;-68
2023/08/03 06:55:48;;;;;;;1999.90;999.90;;;17.20;99.90;;;;;;5018898;28;20118;-76
2023/08/03 06:58:14;;;;;;;1999.90;999.90;;;17.30;99.90;;;;;;5034212;28;20040;-70
2023/08/03 07:00:41;;;;;;;1999.90;999.90;;;17.30;99.90;;;;;;5033244;28;20439;-69
2023/08/03 07:03:07;;;;;;;1999.90;999.90;;;17.70;99.90;;;;;;5034908;28;20029;-69
2023/08/03 07:05:33;;;;;;;1999.90;999.90;;;18.00;99.90;;;;;;5034559;28;20083;-76
2023/08/03 07:07:59;;;;;;;1999.90;999.90;;;18.20;99.90;;;;;;5015407;28;20543;-70
2023/08/03 07:10:24;;;;;;;1999.90;999.90;;;18.20;99.90;;;;;;5033949;28;20056;-69
2023/08/03 07:12:51;;;;;;;1999.90;999.90;;;18.20;99.90;;;;;;5019383;28;20029;-69
2023/08/03 07:15:17;;;;;;;1999.90;999.90;;;18.20;99.90;;;;;;5034379;28;20029;-70
2023/08/03 07:17:43;;;;;;;1999.90;999.90;;;18.10;99.90;;;;;;5008983;28;20025;-69
2023/08/03 07:20:09;;;;;;;1999.90;999.90;;;18.10;99.90;;;;;;5034534;28;20431;-69
2023/08/03 07:22:36;;;;;;;1999.90;999.90;;;18.20;99.90;;;;;;5034178;28;20028;-69
2023/08/03 07:25:03;;;;;;;1999.90;999.90;;;18.30;99.90;;;;;;5016376;28;20037;-69
2023/08/03 07:27:28;;;;;;;1999.90;999.90;;;18.10;99.90;;;;;;5006707;28;20025;-69
2023/08/03 07:29:54;;;;;;;1999.90;999.90;;;18.10;99.90;;;;;;5032445;28;20045;-70
2023/08/03 07:32:20;;;;;;;1999.90;999.90;;;18.00;99.90;;;;;;5033493;28;20033;-75
2023/08/03 07:34:45;;;;;;;1999.90;999.90;;;18.10;99.90;;;;;;5033401;28;20104;-74
2023/08/03 07:37:11;;;;;;;1999.90;999.90;;;18.00;99.90;;;;;;5034262;28;20093;-68
2023/08/03 07:39:37;;;;;;;1999.90;999.90;;;18.10;99.90;;;;;;5033294;28;20028;-68
2023/08/03 07:42:02;;;;;;;1999.90;999.90;;;18.30;99.90;;;;;;5018822;28;20029;-68
2023/08/03 07:44:28;;;;;;;1999.90;999.90;;;17.80;99.90;;;;;;5018512;28;20110;-68
2023/08/03 07:46:54;;;;;;;1999.90;999.90;;;17.40;99.90;;;;;;5014567;28;20504;-68
2023/08/03 07:49:20;;;;;;;1999.90;999.90;;;17.30;99.90;;;;;;5033816;28;20036;-70
2023/08/03 07:51:48;;;;;;;1999.90;999.90;;;17.70;99.90;;;;;;5032487;28;20442;-69
2023/08/03 07:54:14;;;;;;;1999.90;999.90;;;18.90;99.90;;;;;;5016314;28;20400;-69
2023/08/03 07:56:39;;;;;;;1999.90;999.90;;;20.60;99.90;;;;;;5034185;28;20025;-69
2023/08/03 07:59:05;;;;;;;1999.90;999.90;;;22.30;99.90;;;;;;5015053;28;20496;-70
2023/08/03 08:01:31;;;;;;;1999.90;999.90;;;24.00;99.90;;;;;;5013897;28;20071;-76
2023/08/03 08:03:57;;;;;;;1999.90;999.90;;;22.60;99.90;;;;;;5034095;28;20030;-75
2023/08/03 08:06:22;;;;;;;1999.90;999.90;;;20.80;99.90;;;;;;5034031;28;20503;-69
2023/08/03 08:08:50;;;;;;;1999.90;999.90;;;19.60;99.90;;;;;;5015713;28;20029;-67
2023/08/03 08:11:17;;;;;;;1999.90;999.90;;;18.10;99.90;;;;;;5032860;28;20029;-68
2023/08/03 08:13:43;;;;;;;1999.90;999.90;;;17.30;99.90;;;;;;5033632;28;20080;-77
2023/08/03 08:16:11;;;;;;;1999.90;999.90;;;17.10;99.90;;;;;;5034257;28;20134;-69
2023/08/03 08:18:38;;;;;;;1999.90;999.90;;;17.00;99.90;;;;;;5016227;28;20049;-68
2023/08/03 08:21:10;;;;;;;1999.90;999.90;;;17.10;99.90;;;;;;5032407;28;20039;-68
2023/08/03 08:23:36;;;;;;;1999.90;999.90;;;17.30;99.90;;;;;;5015707;28;20021;-69
2023/08/03 08:26:08;;;;;;;1999.90;999.90;;;17.80;99.90;;;;;;5009280;28;20038;-75
2023/08/03 08:28:33;;;;;;;1999.90;999.90;;;18.00;99.90;;;;;;5032692;28;20021;-70
2023/08/03 08:30:59;;;;;;;1999.90;999.90;;;18.30;99.90;;;;;;5033844;28;20104;-69
2023/08/03 08:33:24;;;;;;;1999.90;999.90;;;19.30;99.90;;;;;;5032682;28;20107;-69
2023/08/03 08:35:50;;;;;;;1999.90;999.90;;;20.50;99.90;;;;;;5033912;28;20033;-69
2023/08/03 08:38:16;;;;;;;1999.90;999.90;;;21.00;99.90;;;;;;5033144;28;20021;-69
2023/08/03 08:40:44;;;;;;;1999.90;999.90;;;22.10;99.90;;;;;;5032811;28;20088;-70
2023/08/03 08:43:10;;;;;;;1999.90;999.90;;;21.40;99.90;;;;;;5032639;28;20568;-71
2023/08/03 08:45:37;;;;;;;1999.90;999.90;;;22.80;99.90;;;;;;5033757;28;20021;-69
2023/08/03 08:48:05;;;;;;;1999.90;999.90;;;22.90;99.90;;;;;;5033228;28;20030;-69
2023/08/03 08:50:32;;;;;;;1999.90;999.90;;;21.80;99.90;;;;;;5036983;28;20043;-75
2023/08/03 08:52:58;;;;;;;1999.90;999.90;;;22.10;99.90;;;;;;5036751;28;20419;-75
2023/08/03 08:55:29;;;;;;;1999.90;999.90;;;19.90;99.90;;;;;;5033315;28;20025;-69
2023/08/03 08:57:57;;;;;;;1999.90;999.90;;;18.40;99.90;;;;;;5032748;28;20033;-69
2023/08/03 09:00:24;;;;;;;1999.90;999.90;;;17.60;99.90;;;;;;5002791;28;20033;-68
2023/08/03 09:03:00;;;;;;;1999.90;999.90;;;17.40;99.90;;;;;;5012435;28;20025;-73
2023/08/03 09:05:27;;;;;;;1999.90;999.90;;;17.10;99.90;;;;;;5014504;28;20407;-76
2023/08/03 09:08:06;;;;;;;1999.90;999.90;;;16.90;99.90;;;;;;5032953;28;20032;-68
2023/08/03 09:10:46;;;;;;;1999.90;999.90;;;17.00;99.90;;;;;;5033210;28;20407;-68
2023/08/03 09:13:25;;;;;;;1999.90;999.90;;;17.50;99.90;;;;;;5030066;28;20518;-69
2023/08/03 09:15:51;;;;;;;1999.90;999.90;;;18.10;99.90;;;;;;5032552;28;20029;-75
2023/08/03 09:18:16;;;;;;;1999.90;999.90;;;18.40;99.90;;;;;;5031869;28;20443;-70
2023/08/03 09:20:42;;;;;;;1999.90;999.90;;;19.40;99.90;;;;;;5014685;28;20079;-69
2023/08/03 09:23:07;;;;;;;1999.90;999.90;;;20.00;99.90;;;;;;5032466;28;20026;-69
2023/08/03 09:25:33;;;;;;;1999.90;999.90;;;21.30;99.90;;;;;;5025101;28;20117;-70
2023/08/03 09:27:58;;;;;;;1999.90;999.90;;;21.60;99.90;;;;;;5023152;28;20029;-69
2023/08/03 09:30:27;;;;;;;1999.90;999.90;;;20.60;99.90;;;;;;5029634;28;20037;-69
2023/08/03 09:32:53;;;;;;;1999.90;999.90;;;20.20;99.90;;;;;;5024094;28;20075;-75
2023/08/03 09:35:23;;;;;;;1999.90;999.90;;;21.40;99.90;;;;;;5009840;28;20037;-69
2023/08/03 09:37:50;;;;;;;1999.90;999.90;;;21.30;99.90;;;;;;5025233;28;20065;-69
2023/08/03 09:40:17;;;;;;;1999.90;999.90;;;21.30;99.90;;;;;;5032398;28;20124;-70
2023/08/03 09:42:44;;;;;;;1999.90;999.90;;;22.60;99.90;;;;;;5032004;28;20401;-69
2023/08/03 09:45:10;;;;;;;1999.90;999.90;;;23.00;99.90;;;;;;5031776;28;20025;-69
2023/08/03 09:47:36;;;;;;;1999.90;999.90;;;22.20;99.90;;;;;;5031945;28;20056;-70
2023/08/03 09:50:05;;;;;;;1999.90;999.90;;;23.00;99.90;;;;;;5032056;28;20029;-70
2023/08/03 09:52:32;;;;;;;1999.90;999.90;;;23.70;99.90;;;;;;5032008;28;20496;-70
2023/08/03 09:55:12;;;;;;;1999.90;999.90;;;23.60;99.90;;;;;;5031169;28;20119;-75
2023/08/03 09:57:46;;;;;;;1999.90;999.90;;;24.70;99.90;;;;;;5029459;28;20032;-70
2023/08/03 10:00:13;;;;;;;1999.90;999.90;;;24.00;99.90;;;;;;5031667;28;20100;-70
2023/08/03 10:02:51;;;;;;;1999.90;999.90;;;23.70;99.90;;;;;;5031144;28;20632;-70
2023/08/03 10:05:18;;;;;;;1999.90;999.90;;;24.70;99.90;;;;;;5031086;28;20484;-70
2023/08/03 10:07:56;;;;;;;1999.90;999.90;;;23.90;99.90;;;;;;5031687;28;20104;-69
2023/08/03 10:10:25;;;;;;;1999.90;999.90;;;23.50;99.90;;;;;;5031327;28;20033;-75
2023/08/03 10:12:56;;;;;;;1999.90;999.90;;;23.80;99.90;;;;;;5031675;28;20061;-69
2023/08/03 10:15:23;;;;;;;1999.90;999.90;;;22.80;99.90;;;;;;5024970;28;20040;-70
2023/08/03 10:17:49;;;;;;;1999.90;999.90;;;21.50;99.90;;;;;;5028697;28;20068;-68
2023/08/03 10:20:15;;;;;;;1999.90;999.90;;;21.00;99.90;;;;;;5030882;28;20111;-69
2023/08/03 10:23:17;;;;;;;1999.90;999.90;;;20.70;99.90;;;;;;5018197;28;20511;-69
2023/08/03 10:25:53;;;;;;;1999.90;999.90;;;20.90;99.90;;;;;;5014838;28;20041;-70
2023/08/03 10:28:38;;;;;;;1999.90;999.90;;;22.40;99.90;;;;;;5032088;28;20026;-71
2023/08/03 10:31:11;;;;;;;1999.90;999.90;;;23.10;99.90;;;;;;5032186;28;20029;-70
2023/08/03 10:33:49;;;;;;;1999.90;999.90;;;23.00;99.90;;;;;;5032996;28;20083;-70
2023/08/03 10:36:29;;;;;;;1999.90;999.90;;;23.40;99.90;;;;;;5028604;28;20026;-70
2023/08/03 10:38:56;;;;;;;1999.90;999.90;;;25.40;99.90;;;;;;5031875;28;20041;-70
2023/08/03 10:41:36;;;;;;;1999.90;999.90;;;25.50;99.90;;;;;;5031820;28;20451;-71
2023/08/03 10:44:05;;;;;;;1999.90;999.90;;;25.20;99.90;;;;;;5031165;28;20255;-69
2023/08/03 10:46:45;;;;;;;1999.90;999.90;;;24.20;99.90;;;;;;5033184;28;20084;-70
2023/08/03 10:49:20;;;;;;;1999.90;999.90;;;22.90;99.90;;;;;;5037806;28;20026;-69
2023/08/03 10:52:15;;;;;;;1999.90;999.90;;;22.70;99.90;;;;;;5015803;28;20036;-70
2023/08/03 10:54:41;;;;;;;1999.90;999.90;;;22.10;99.90;;;;;;5037087;28;20054;-70
2023/08/03 10:57:07;;;;;;;1999.90;999.90;;;21.50;99.90;;;;;;5035509;28;20492;-70
2023/08/03 10:59:40;;;;;;;1999.90;999.90;;;21.00;99.90;;;;;;5037679;28;20061;-70
2023/08/03 11:02:20;;;;;;;1999.90;999.90;;;21.20;99.90;;;;;;5032969;28;20037;-69
2023/08/03 11:04:50;;;;;;;1999.90;999.90;;;21.30;99.90;;;;;;5033051;28;20423;-70
2023/08/03 11:07:20;;;;;;;1999.90;999.90;;;21.90;99.90;;;;;;5032740;28;20029;-71
2023/08/03 11:09:48;;;;;;;1999.90;999.90;;;22.60;99.90;;;;;;5029739;28;20033;-69
2023/08/03 11:12:16;;;;;;;1999.90;999.90;;;22.50;99.90;;;;;;5025755;28;20061;-70
2023/08/03 11:14:44;;;;;;;1999.90;999.90;;;22.00;99.90;;;;;;5017176;28;20091;-75
2023/08/03 11:17:10;;;;;;;1999.90;999.90;;;21.60;99.90;;;;;;5032181;28;20032;-70
2023/08/03 11:19:38;;;;;;;1999.90;999.90;;;21.00;99.90;;;;;;5013399;28;20476;-69
2023/08/03 11:22:05;;;;;;;1999.90;999.90;;;20.70;99.90;;;;;;5031640;28;20400;-70
2023/08/03 11:24:31;;;;;;;1999.90;999.90;;;20.70;99.90;;;;;;5013477;28;20032;-71
2023/08/03 11:26:58;;;;;;;1999.90;999.90;;;21.40;99.90;;;;;;5029025;28;20021;-70
2023/08/03 11:29:25;;;;;;;1999.90;999.90;;;21.10;99.90;;;;;;5027711;28;20156;-74
2023/08/03 11:31:51;;;;;;;1999.90;999.90;;;21.50;99.90;;;;;;5032302;28;20033;-70
2023/08/03 11:34:16;;;;;;;1999.90;999.90;;;22.00;99.90;;;;;;5013876;28;20034;-70
2023/08/03 11:36:49;;;;;;;1999.90;999.90;;;22.10;99.90;;;;;;5024768;28;20030;-70
2023/08/03 11:39:15;;;;;;;1999.90;999.90;;;21.60;99.90;;;;;;5031544;28;20040;-73
2023/08/03 11:41:42;;;;;;;1999.90;999.90;;;20.80;99.90;;;;;;5033929;28;20408;-70
2023/08/03 11:44:08;;;;;;;1999.90;999.90;;;21.60;99.90;;;;;;5033566;28;20142;-70
2023/08/03 11:46:34;;;;;;;1999.90;999.90;;;23.00;99.90;;;;;;5032278;28;20500;-70
2023/08/03 11:49:02;;;;;;;1999.90;999.90;;;23.00;99.90;;;;;;5029847;28;20037;-69
2023/08/03 11:51:36;;;;;;;1999.90;999.90;;;21.60;99.90;;;;;;5012639;28;20033;-69
2023/08/03 11:54:03;;;;;;;1999.90;999.90;;;21.50;99.90;;;;;;5029512;28;20373;-70
2023/08/03 11:56:29;;;;;;;1999.90;999.90;;;22.70;99.90;;;;;;5029910;28;20037;-70
2023/08/03 11:58:57;;;;;;;1999.90;999.90;;;22.80;99.90;;;;;;5015937;28;20472;-70